createdAt,value
2023-03-21T00:00:45.850Z,7.55
2023-03-21T00:03:14.716Z,6.55
2023-03-21T00:05:43.883Z,6.53
2023-03-21T00:08:11.837Z,8.60
2023-03-21T00:10:43.549Z,7.45
2023-03-21T00:13:32.305Z,6.43
2023-03-21T00:16:15.935Z,6.47
2023-03-21T00:18:54.805Z,7.32
2023-03-21T00:21:44.357Z,6.18
2023-03-21T00:24:10.182Z,7.53
2023-03-21T00:26:37.009Z,8.35
2023-03-21T00:29:04.352Z,6.22
2023-03-21T00:31:31.598Z,7.65
2023-03-21T00:33:58.939Z,7.62
2023-03-21T00:36:31.801Z,7.55
2023-03-21T00:39:02.159Z,5.72
2023-03-21T00:41:45.601Z,6.05
2023-03-21T00:46:54.570Z,6.25
2023-03-21T00:49:34.897Z,5.50
2023-03-21T00:52:27.582Z,6.50
2023-03-21T00:54:51.185Z,5.25
2023-03-21T00:57:20.277Z,5.45
2023-03-21T00:59:51.838Z,7.12
2023-03-21T01:02:20.358Z,4.47
2023-03-21T01:04:47.954Z,7.37
2023-03-21T01:07:14.949Z,5.47
2023-03-21T01:09:42.535Z,4.78
2023-03-21T01:12:09.794Z,5.90
2023-03-21T01:14:36.922Z,6.85
2023-03-21T01:17:04.958Z,6.40
2023-03-21T01:19:50.153Z,5.03
2023-03-21T01:22:19.078Z,4.32
2023-03-21T01:24:54.160Z,5.70
2023-03-21T01:27:26.731Z,5.72
2023-03-21T01:29:56.349Z,5.93
2023-03-21T01:32:26.875Z,6.37
2023-03-21T01:34:54.664Z,4.90
2023-03-21T01:37:21.862Z,5.47
2023-03-21T01:39:49.037Z,4.32
2023-03-21T01:42:16.506Z,4.82
2023-03-21T01:44:58.818Z,4.72
2023-03-21T01:47:28.738Z,5.22
2023-03-21T01:49:59.622Z,5.50
2023-03-21T01:52:39.124Z,6.10
2023-03-21T01:55:12.692Z,6.43
2023-03-21T01:58:03.912Z,4.43
2023-03-21T02:00:33.153Z,5.75
2023-03-21T02:03:18.904Z,5.80
2023-03-21T02:06:02.369Z,8.13
2023-03-21T02:08:39.641Z,6.40
2023-03-21T02:11:11.836Z,4.40
2023-03-21T02:13:42.305Z,4.03
2023-03-21T02:16:23.034Z,4.18
2023-03-21T02:19:06.877Z,3.65
2023-03-21T02:21:49.098Z,4.18
2023-03-21T02:24:37.236Z,7.50
2023-03-21T02:27:17.827Z,3.92
2023-03-21T02:30:35.369Z,5.30
2023-03-21T02:33:43.693Z,4.12
2023-03-21T02:36:25.390Z,3.62
2023-03-21T02:39:26.146Z,4.32
2023-03-21T02:42:09.508Z,3.97
2023-03-21T02:44:58.352Z,6.70
2023-03-21T02:48:14.566Z,4.57
2023-03-21T02:50:52.653Z,3.78
2023-03-21T02:53:30.616Z,5.55
2023-03-21T02:56:00.002Z,4.07
2023-03-21T02:58:32.731Z,5.37
2023-03-21T03:01:05.529Z,4.10
2023-03-21T03:03:34.840Z,3.87
2023-03-21T03:06:05.322Z,4.70
2023-03-21T03:08:45.269Z,5.60
2023-03-21T03:11:38.256Z,4.37
2023-03-21T03:14:39.968Z,4.90
2023-03-21T03:17:28.537Z,4.22
2023-03-21T03:20:18.614Z,4.37
2023-03-21T03:23:09.975Z,4.80
2023-03-21T03:25:44.368Z,4.55
2023-03-21T03:28:16.009Z,3.78
2023-03-21T03:31:05.438Z,3.50
2023-03-21T03:33:40.433Z,3.73
2023-03-21T03:36:18.809Z,3.65
2023-03-21T03:38:59.868Z,3.50
2023-03-21T03:42:00.909Z,4.03
2023-03-21T03:44:21.740Z,3.43
2023-03-21T03:46:57.436Z,3.70
2023-03-21T03:49:32.486Z,3.67
2023-03-21T03:52:23.084Z,4.60
2023-03-21T03:54:59.134Z,4.28
2023-03-21T03:57:28.417Z,3.50
2023-03-21T03:59:56.724Z,3.22
2023-03-21T04:02:26.578Z,4.18
2023-03-21T04:04:56.335Z,3.60
2023-03-21T04:07:28.448Z,4.00
2023-03-21T04:09:57.453Z,4.07
2023-03-21T04:12:29.205Z,3.10
2023-03-21T04:15:10.226Z,3.83
2023-03-21T04:17:43.776Z,3.80
2023-03-21T04:20:23.555Z,3.10
2023-03-21T04:22:57.665Z,3.42
2023-03-21T04:25:33.300Z,3.67
2023-03-21T04:28:01.339Z,3.50
2023-03-21T04:30:28.610Z,3.90
2023-03-21T04:32:55.680Z,4.10
2023-03-21T04:35:24.102Z,3.00
2023-03-21T04:37:55.546Z,3.12
2023-03-21T04:40:25.751Z,2.95
2023-03-21T04:42:53.234Z,3.47
2023-03-21T04:45:20.263Z,3.90
2023-03-21T04:47:47.267Z,3.28
2023-03-21T04:50:17.488Z,4.82
2023-03-21T04:52:44.889Z,4.10
2023-03-21T04:55:14.800Z,5.43
2023-03-21T04:57:42.540Z,3.58
2023-03-21T05:00:10.862Z,4.57
2023-03-21T05:02:42.912Z,4.03
2023-03-21T05:05:10.176Z,2.90
2023-03-21T05:07:42.074Z,3.17
2023-03-21T05:10:11.346Z,3.42
2023-03-21T05:12:38.768Z,3.28
2023-03-21T05:15:09.669Z,3.53
2023-03-21T05:17:37.292Z,3.00
2023-03-21T05:20:05.539Z,3.20
2023-03-21T05:22:38.581Z,2.80
2023-03-21T05:25:09.720Z,2.97
2023-03-21T05:27:40.027Z,3.92
2023-03-21T05:30:13.101Z,3.12
2023-03-21T05:35:11.237Z,3.37
2023-03-21T05:37:38.537Z,3.35
2023-03-21T05:40:10.326Z,3.05
2023-03-21T05:42:44.159Z,2.67
2023-03-21T05:45:12.428Z,3.25
2023-03-21T05:47:42.068Z,2.65
2023-03-21T05:50:12.016Z,3.17
2023-03-21T05:52:39.982Z,3.28
2023-03-21T05:55:08.076Z,3.25
2023-03-21T05:57:39.081Z,3.17
2023-03-21T06:00:08.241Z,2.90
2023-03-21T06:02:35.965Z,3.40
2023-03-21T06:05:07.995Z,3.10
2023-03-21T06:07:36.335Z,3.22
2023-03-21T06:10:08.187Z,3.00
2023-03-21T06:12:35.235Z,2.78
2023-03-21T06:15:03.740Z,3.17
2023-03-21T06:17:31.469Z,3.45
2023-03-21T06:20:06.090Z,4.82
2023-03-21T06:22:36.748Z,4.32
2023-03-21T06:25:07.261Z,4.37
2023-03-21T06:27:35.729Z,2.72
2023-03-21T06:30:05.239Z,5.15
2023-03-21T06:32:35.507Z,3.20
2023-03-21T06:35:05.532Z,3.12
2023-03-21T06:37:35.840Z,5.97
2023-03-21T06:40:05.762Z,5.00
2023-03-21T06:42:33.428Z,3.42
2023-03-21T06:45:04.058Z,4.07
2023-03-21T06:47:34.890Z,4.28
2023-03-21T06:50:02.474Z,4.05
2023-03-21T06:52:29.885Z,4.95
2023-03-21T06:54:57.189Z,5.05
2023-03-21T06:57:24.508Z,6.18
2023-03-21T06:59:55.252Z,13.30
2023-03-21T07:02:25.906Z,5.20
2023-03-21T07:04:54.318Z,5.22
2023-03-21T07:07:28.943Z,10.63
2023-03-21T07:09:56.816Z,12.10
2023-03-21T07:12:24.290Z,12.20
2023-03-21T07:14:53.160Z,12.75
2023-03-21T07:17:19.960Z,59.65
2023-03-21T07:19:49.897Z,71.37
2023-03-21T07:22:16.779Z,64.03
2023-03-21T07:24:45.917Z,58.75
2023-03-21T07:27:15.179Z,53.17
2023-03-21T07:29:45.198Z,48.28
2023-03-21T07:32:11.903Z,49.63
2023-03-21T07:34:38.714Z,53.72
2023-03-21T07:37:06.538Z,65.50
2023-03-21T07:39:33.734Z,50.85
2023-03-21T07:42:00.830Z,117.60
2023-03-21T07:44:27.650Z,83.75
2023-03-21T07:46:54.550Z,76.97
2023-03-21T07:49:23.770Z,65.93
2023-03-21T07:51:56.659Z,58.72
2023-03-21T07:54:23.558Z,57.75
2023-03-21T07:56:56.291Z,54.72
2023-03-21T07:59:23.867Z,62.47
2023-03-21T08:01:50.967Z,63.47
2023-03-21T08:04:19.962Z,61.22
2023-03-21T08:06:46.852Z,72.12
2023-03-21T08:09:20.349Z,82.47
2023-03-21T08:11:51.036Z,88.35
2023-03-21T08:14:21.163Z,96.30
2023-03-21T08:16:51.081Z,181.43
2023-03-21T08:19:18.467Z,198.82
2023-03-21T08:21:45.291Z,220.57
2023-03-21T08:24:15.482Z,172.37
2023-03-21T08:26:48.539Z,156.07
2023-03-21T08:31:45.789Z,165.98
2023-03-21T08:34:13.482Z,160.02
2023-03-21T08:36:43.244Z,145.62
2023-03-21T08:39:10.441Z,165.37
2023-03-21T08:41:41.163Z,145.90
2023-03-21T08:44:11.188Z,162.02
2023-03-21T08:46:40.954Z,154.02
2023-03-21T08:49:10.660Z,155.00
2023-03-21T08:51:40.668Z,143.93
2023-03-21T08:54:18.090Z,153.70
2023-03-21T08:56:44.870Z,141.10
2023-03-21T08:59:11.533Z,143.73
2023-03-21T09:01:39.333Z,137.98
2023-03-21T09:04:06.486Z,145.98
2023-03-21T09:06:34.182Z,139.23
2023-03-21T09:09:04.957Z,132.87
2023-03-21T09:11:35.020Z,142.62
2023-03-21T09:16:41.696Z,140.35
2023-03-21T09:19:09.061Z,148.57
2023-03-21T09:21:36.441Z,133.20
2023-03-21T09:24:04.173Z,138.30
2023-03-21T09:26:30.972Z,129.35
2023-03-21T09:28:57.762Z,132.50
2023-03-21T09:31:28.025Z,134.87
2023-03-21T09:33:55.469Z,132.90
2023-03-21T09:36:25.975Z,142.70
2023-03-21T09:38:54.116Z,131.70
2023-03-21T09:41:38.216Z,129.30
2023-03-21T09:44:42.640Z,124.05
2023-03-21T09:47:20.269Z,131.15
2023-03-21T09:50:07.528Z,124.00
2023-03-21T09:52:56.957Z,136.12
2023-03-21T09:55:36.708Z,143.48
2023-03-21T09:58:37.733Z,125.10
2023-03-21T10:01:12.993Z,114.53
2023-03-21T10:03:43.427Z,116.68
2023-03-21T10:06:14.805Z,116.97
2023-03-21T10:08:46.412Z,116.78
2023-03-21T10:11:23.807Z,110.88
2023-03-21T10:14:01.856Z,110.88
2023-03-21T10:16:56.154Z,115.80
2023-03-21T10:19:23.147Z,113.18
2023-03-21T10:22:06.995Z,109.68
2023-03-21T10:24:35.186Z,129.65
2023-03-21T10:27:03.086Z,151.65
2023-03-21T10:29:38.829Z,164.23
2023-03-21T10:32:09.424Z,132.87
2023-03-21T10:34:48.693Z,175.77
2023-03-21T10:37:15.947Z,181.35
2023-03-21T10:39:49.243Z,158.10
2023-03-21T10:42:28.521Z,167.13
2023-03-21T10:44:57.236Z,177.20
2023-03-21T10:47:42.948Z,167.85
2023-03-21T10:50:17.401Z,164.13
2023-03-21T10:52:51.363Z,151.63
2023-03-21T10:55:31.242Z,152.85
2023-03-21T10:58:06.632Z,155.70
2023-03-21T11:00:43.340Z,177.50
2023-03-21T11:03:36.528Z,159.07
2023-03-21T11:06:11.551Z,161.35
2023-03-21T11:08:50.762Z,151.25
2023-03-21T11:11:39.224Z,152.45
2023-03-21T11:14:24.351Z,158.15
2023-03-21T11:16:55.321Z,141.68
2023-03-21T11:19:35.768Z,145.32
2023-03-21T11:22:09.019Z,150.38
2023-03-21T11:24:36.367Z,131.40
2023-03-21T11:27:08.095Z,132.50
2023-03-21T11:29:37.654Z,135.40
2023-03-21T11:32:21.976Z,138.80
2023-03-21T11:35:01.815Z,126.70
2023-03-21T11:37:34.648Z,134.10
2023-03-21T11:40:24.787Z,145.10
2023-03-21T11:42:59.903Z,114.68
2023-03-21T11:45:29.628Z,123.00
2023-03-21T11:47:59.338Z,123.50
2023-03-21T11:50:40.693Z,120.45
2023-03-21T11:53:35.828Z,114.60
2023-03-21T11:56:12.631Z,117.22
2023-03-21T11:59:04.055Z,110.05
2023-03-21T12:01:59.396Z,116.40
2023-03-21T12:04:54.678Z,110.07
2023-03-21T12:07:40.486Z,120.20
2023-03-21T12:10:07.500Z,104.55
2023-03-21T12:12:39.868Z,85.00
2023-03-21T12:15:22.434Z,90.45
2023-03-21T12:18:15.109Z,99.78
2023-03-21T12:20:50.355Z,96.83
2023-03-21T12:23:45.387Z,99.25
2023-03-21T12:26:32.442Z,90.35
2023-03-21T12:29:23.914Z,95.12
2023-03-21T12:31:54.179Z,90.93
2023-03-21T12:34:39.258Z,93.12
2023-03-21T12:37:35.143Z,76.30
2023-03-21T12:40:28.601Z,82.53
2023-03-21T12:43:26.435Z,84.07
2023-03-21T12:46:04.431Z,73.75
2023-03-21T12:48:53.067Z,85.43
2023-03-21T12:51:26.730Z,72.03
2023-03-21T12:54:14.343Z,76.53
2023-03-21T12:57:04.553Z,71.60
2023-03-21T13:00:03.027Z,68.60
2023-03-21T13:02:34.137Z,75.25
2023-03-21T13:05:28.299Z,65.70
2023-03-21T13:08:15.288Z,71.43
2023-03-21T13:10:45.135Z,67.82
2023-03-21T13:13:26.520Z,72.53
2023-03-21T13:19:17.444Z,55.67
2023-03-21T13:22:02.508Z,65.90
2023-03-21T13:24:37.937Z,65.10
2023-03-21T13:27:22.325Z,62.53
2023-03-21T13:30:02.511Z,57.53
2023-03-21T13:32:32.219Z,58.67
2023-03-21T13:35:00.323Z,62.13
2023-03-21T13:37:33.812Z,48.67
2023-03-21T13:40:03.571Z,61.00
2023-03-21T13:42:34.318Z,68.45
2023-03-21T13:45:05.636Z,74.85
2023-03-21T13:47:40.846Z,66.53
2023-03-21T13:50:33.737Z,74.05
2023-03-21T13:53:19.297Z,83.18
2023-03-21T13:55:57.569Z,79.80
2023-03-21T13:58:33.912Z,74.57
2023-03-21T14:01:26.226Z,76.18
2023-03-21T14:04:11.736Z,81.10
2023-03-21T14:06:55.122Z,64.80
2023-03-21T14:09:37.121Z,67.18
2023-03-21T14:12:09.522Z,64.57
2023-03-21T14:14:42.576Z,64.37
2023-03-21T14:19:55.398Z,58.25
2023-03-21T14:22:23.298Z,60.33
2023-03-21T14:25:01.392Z,56.92
2023-03-21T14:27:35.232Z,55.63
2023-03-21T14:30:06.760Z,57.97
2023-03-21T14:32:37.585Z,48.28
2023-03-21T14:35:04.940Z,47.62
2023-03-21T14:37:39.793Z,50.58
2023-03-21T14:40:18.390Z,50.50
2023-03-21T14:42:50.797Z,51.15
2023-03-21T14:45:26.899Z,47.13
2023-03-21T14:48:07.346Z,39.35
2023-03-21T14:50:51.655Z,47.35
2023-03-21T14:53:32.621Z,43.13
2023-03-21T14:56:07.841Z,38.33
2023-03-21T14:58:39.463Z,37.80
2023-03-21T15:01:13.787Z,39.50
2023-03-21T15:03:50.615Z,38.67
2023-03-21T15:06:17.672Z,35.53
2023-03-21T15:09:02.653Z,41.25
2023-03-21T15:11:39.483Z,40.78
2023-03-21T15:14:13.255Z,40.97
2023-03-21T15:16:40.236Z,34.92
2023-03-21T15:19:10.952Z,32.47
2023-03-21T15:21:48.756Z,41.70
2023-03-21T15:24:32.544Z,39.53
2023-03-21T15:27:20.142Z,39.53
2023-03-21T15:29:51.630Z,36.13
2023-03-21T15:32:21.885Z,39.97
2023-03-21T15:34:51.822Z,41.92
2023-03-21T15:37:28.403Z,27.95
2023-03-21T15:40:08.514Z,19.60
2023-03-21T15:42:40.461Z,18.67
2023-03-21T15:45:22.227Z,17.80
2023-03-21T15:47:52.213Z,12.57
2023-03-21T15:50:40.304Z,13.30
2023-03-21T15:53:32.160Z,12.90
2023-03-21T15:56:00.072Z,12.43
2023-03-21T15:58:33.095Z,11.20
2023-03-21T16:03:32.002Z,13.52
2023-03-21T16:06:10.722Z,18.77
2023-03-21T16:08:44.706Z,16.27
2023-03-21T16:11:22.653Z,12.48
2023-03-21T16:13:50.400Z,13.25
2023-03-21T16:16:18.980Z,13.73
2023-03-21T16:18:45.888Z,17.33
2023-03-21T16:21:18.187Z,14.57
2023-03-21T16:23:45.756Z,14.82
2023-03-21T16:26:21.173Z,11.85
2023-03-21T16:28:51.442Z,13.32
2023-03-21T16:31:23.919Z,16.40
2023-03-21T16:33:51.100Z,13.15
2023-03-21T16:36:31.022Z,14.90
2023-03-21T16:39:02.168Z,13.93
2023-03-21T16:41:30.846Z,14.43
2023-03-21T16:43:58.938Z,12.98
2023-03-21T16:46:28.876Z,15.07
2023-03-21T16:48:59.867Z,12.45
2023-03-21T16:51:36.676Z,12.18
2023-03-21T16:54:05.066Z,9.73
2023-03-21T16:56:40.850Z,15.25
2023-03-21T16:59:08.023Z,14.32
2023-03-21T17:01:38.331Z,12.60
2023-03-21T17:04:08.929Z,12.43
2023-03-21T17:06:58.512Z,19.65
2023-03-21T17:09:28.847Z,20.88
2023-03-21T17:11:56.100Z,20.12
2023-03-21T17:14:23.262Z,24.10
2023-03-21T17:16:54.002Z,21.37
2023-03-21T17:19:24.485Z,16.80
2023-03-21T17:21:51.208Z,13.82
2023-03-21T17:24:18.042Z,14.43
2023-03-21T17:26:48.432Z,18.15
2023-03-21T17:29:21.962Z,13.55
2023-03-21T17:31:52.643Z,15.20
2023-03-21T17:34:20.186Z,15.43
2023-03-21T17:36:48.275Z,13.10
2023-03-21T17:39:26.832Z,15.13
2023-03-21T17:41:54.036Z,13.93
2023-03-21T17:44:23.763Z,16.27
2023-03-21T17:46:54.860Z,17.52
2023-03-21T17:49:25.333Z,18.67
2023-03-21T17:51:55.807Z,18.08
2023-03-21T17:54:26.662Z,14.60
2023-03-21T17:56:57.191Z,20.17
2023-03-21T17:59:28.277Z,15.60
2023-03-21T18:02:07.349Z,19.00
2023-03-21T18:04:39.371Z,18.33
2023-03-21T18:07:16.147Z,14.47
2023-03-21T18:09:48.457Z,19.40
2023-03-21T18:12:19.039Z,19.23
2023-03-21T18:14:51.366Z,15.65
2023-03-21T18:17:19.202Z,17.37
2023-03-21T18:19:46.948Z,13.62
2023-03-21T18:22:14.656Z,16.45
2023-03-21T18:24:44.902Z,15.30
2023-03-21T18:27:18.491Z,19.25
2023-03-21T18:30:25.635Z,11.80
2023-03-21T18:32:39.432Z,13.88
2023-03-21T18:35:09.495Z,13.32
2023-03-21T18:37:42.496Z,12.50
2023-03-21T18:43:08.726Z,14.52
2023-03-21T18:45:29.988Z,13.07
2023-03-21T18:47:58.201Z,12.32
2023-03-21T18:50:29.089Z,14.27
2023-03-21T18:53:00.759Z,15.38
2023-03-21T18:55:44.505Z,12.65
2023-03-21T18:58:18.085Z,13.32
2023-03-21T19:00:45.865Z,12.10
2023-03-21T19:03:24.888Z,13.88
2023-03-21T19:06:07.649Z,14.00
2023-03-21T19:08:38.674Z,9.98
2023-03-21T19:11:06.985Z,12.68
2023-03-21T19:13:37.671Z,11.70
2023-03-21T19:16:11.605Z,11.23
2023-03-21T19:18:53.900Z,15.32
2023-03-21T19:21:30.039Z,11.82
2023-03-21T19:26:48.476Z,12.10
2023-03-21T19:29:16.430Z,12.00
2023-03-21T19:31:45.185Z,12.25
2023-03-21T19:34:15.919Z,11.15
2023-03-21T19:36:51.494Z,18.77
2023-03-21T19:39:23.502Z,17.50
2023-03-21T19:42:02.921Z,13.52
2023-03-21T19:44:43.274Z,10.27
2023-03-21T19:47:19.616Z,13.77
2023-03-21T19:52:37.808Z,11.38
2023-03-21T19:55:10.743Z,12.77
2023-03-21T19:57:39.017Z,10.93
2023-03-21T20:00:06.722Z,10.35
2023-03-21T20:02:40.229Z,11.15
2023-03-21T20:05:14.596Z,9.75
2023-03-21T20:07:47.229Z,10.75
2023-03-21T20:10:14.257Z,13.82
2023-03-21T20:12:41.116Z,9.20
2023-03-21T20:15:18.369Z,10.68
2023-03-21T20:17:49.144Z,9.00
2023-03-21T20:20:19.639Z,10.75
2023-03-21T20:23:15.815Z,10.10
2023-03-21T20:25:43.139Z,12.30
2023-03-21T20:28:24.707Z,10.38
2023-03-21T20:30:56.326Z,10.32
2023-03-21T20:33:23.581Z,8.85
2023-03-21T20:38:52.474Z,10.55
2023-03-21T20:41:25.352Z,10.15
2023-03-21T20:44:34.712Z,8.90
2023-03-21T20:46:42.698Z,9.57
2023-03-21T20:49:13.529Z,9.18
2023-03-21T20:54:28.275Z,8.63
2023-03-21T20:56:58.633Z,10.00
2023-03-21T20:59:28.131Z,11.15
2023-03-21T21:01:59.970Z,10.68
2023-03-21T21:04:44.879Z,7.70
2023-03-21T21:07:14.395Z,8.65
2023-03-21T21:09:42.559Z,8.90
2023-03-21T21:12:12.797Z,8.10
2023-03-21T21:14:40.810Z,9.00
2023-03-21T21:19:57.702Z,10.23
2023-03-21T21:22:27.376Z,9.85
2023-03-21T21:24:57.791Z,10.20
2023-03-21T21:27:27.075Z,8.10
2023-03-21T21:29:56.820Z,9.95
2023-03-21T21:32:23.668Z,9.75
2023-03-21T21:34:56.254Z,12.00
2023-03-21T21:37:28.535Z,8.82
2023-03-21T21:39:55.519Z,8.52
2023-03-21T21:42:22.576Z,7.50
2023-03-21T21:44:57.454Z,10.10
2023-03-21T21:47:24.436Z,9.73
2023-03-21T21:49:57.021Z,7.68
2023-03-21T21:52:24.023Z,6.60
2023-03-21T21:54:54.343Z,6.57
2023-03-21T21:57:21.627Z,8.95
2023-03-21T21:59:49.014Z,6.70
2023-03-21T22:02:18.962Z,6.28
2023-03-21T22:04:45.752Z,8.77
2023-03-21T22:07:12.816Z,7.15
2023-03-21T22:09:42.583Z,7.00
2023-03-21T22:12:10.055Z,7.55
2023-03-21T22:14:37.025Z,6.68
2023-03-21T22:17:06.394Z,6.32
2023-03-21T22:19:33.258Z,11.90
2023-03-21T22:22:00.121Z,7.60
2023-03-21T22:24:27.339Z,6.12
2023-03-21T22:26:57.794Z,10.40
2023-03-21T22:29:28.694Z,10.85
2023-03-21T22:31:59.048Z,8.93
2023-03-21T22:34:26.784Z,10.93
2023-03-21T22:36:56.874Z,8.07
2023-03-21T22:39:26.744Z,10.82
2023-03-21T22:41:53.939Z,10.57
2023-03-21T22:44:20.994Z,7.43
2023-03-21T22:46:48.473Z,9.25
2023-03-21T22:49:18.934Z,8.52
2023-03-21T22:51:48.490Z,7.00
2023-03-21T22:54:15.943Z,9.30
2023-03-21T22:56:46.357Z,7.65
2023-03-21T22:59:16.259Z,8.10
2023-03-21T23:01:43.469Z,6.28
2023-03-21T23:04:11.057Z,8.00
2023-03-21T23:06:40.289Z,9.07
2023-03-21T23:09:10.480Z,7.20
2023-03-21T23:11:41.383Z,6.47
2023-03-21T23:14:08.872Z,5.72
2023-03-21T23:16:38.975Z,6.05
2023-03-21T23:19:06.531Z,6.57
2023-03-21T23:21:34.359Z,8.27
2023-03-21T23:24:02.202Z,6.55
2023-03-21T23:26:33.334Z,8.63
2023-03-21T23:29:00.963Z,7.80
2023-03-21T23:31:29.726Z,7.25
2023-03-21T23:33:58.940Z,7.20
2023-03-21T23:36:26.190Z,7.15
2023-03-21T23:38:53.815Z,7.72
2023-03-21T23:41:23.279Z,6.55
2023-03-21T23:43:51.142Z,5.50
2023-03-21T23:46:23.069Z,7.03
2023-03-21T23:48:50.529Z,8.68
2023-03-21T23:51:18.434Z,6.68
2023-03-21T23:53:48.855Z,6.05
2023-03-21T23:56:20.387Z,5.30
2023-03-21T23:58:49.728Z,5.93
